Wetterdaten: Donnerstag, 13.04.2006
Datum Zeit Temp. A Sch. Temp. A Son. Feuchte A. Luftdruck Regen Wind Richtung Richtung Sonnenschein Helligkeit Taupunkt Windchill
13.04.2006 00:00 5,5 C 4,2 C 76 % 1013 hPa 0,0 l/m 0,3 m/s (1 Bft) W 280 0 min 0 lux 1,6 C 5,5 C
13.04.2006 00:05 5,5 C 4,1 C 76 % 1013 hPa 0,0 l/m 0,1 m/s (0 Bft) W 280 0 min 0 lux 1,6 C 5,5 C
13.04.2006 00:10 5,5 C 4,0 C 76 % 1013 hPa 0,0 l/m 1,0 m/s (1 Bft) W-SW22.5 245 0 min 0 lux 1,6 C 5,5 C
13.04.2006 00:15 5,5 C 3,9 C 76 % 1013 hPa 0,0 l/m 0,0 m/s (0 Bft) W-SW 240 0 min 0 lux 1,6 C 5,5 C
13.04.2006 00:20 5,5 C 3,7 C 76 % 1013 hPa 0,0 l/m 1,1 m/s (1 Bft) W-SW22.5 240 0 min 0 lux 1,6 C 5,5 C
13.04.2006 00:25 5,5 C 3,7 C 76 % 1013 hPa 0,0 l/m 1,5 m/s (1 Bft) W-SW22.5 240 0 min 0 lux 1,6 C 5,5 C
13.04.2006 00:30 5,5 C 3,5 C 76 % 1013 hPa 0,0 l/m 1,9 m/s (2 Bft) W-SW22.5 245 0 min 0 lux 1,6 C 5,2 C
13.04.2006 00:35 5,5 C 3,4 C 76 % 1013 hPa 0,0 l/m 1,9 m/s (2 Bft) W-SW22.5 245 0 min 0 lux 1,6 C 5,0 C
13.04.2006 00:40 5,5 C 3,3 C 76 % 1013 hPa 0,0 l/m 1,1 m/s (1 Bft) W-SW 250 0 min 0 lux 1,6 C 5,5 C
13.04.2006 00:45 5,5 C 3,2 C 76 % 1013 hPa 0,0 l/m 1,6 m/s (2 Bft) W-SW22.5 255 0 min 0 lux 1,6 C 5,5 C
13.04.2006 00:50 5,5 C 3,2 C 76 % 1013 hPa 0,0 l/m 0,0 m/s (0 Bft) SW 225 0 min 0 lux 1,6 C 5,5 C
13.04.2006 00:55 5,5 C 3,0 C 76 % 1013 hPa 0,0 l/m 0,0 m/s (0 Bft) SW 215 0 min 0 lux 1,6 C 5,5 C
13.04.2006 01:00 5,5 C 2,9 C 76 % 1013 hPa 0,0 l/m 0,0 m/s (0 Bft) SW 215 0 min 0 lux 1,6 C 5,5 C
13.04.2006 01:05 5,5 C 2,8 C 76 % 1013 hPa 0,0 l/m 0,0 m/s (0 Bft) SW 215 0 min 0 lux 1,6 C 5,5 C
13.04.2006 01:10 5,5 C 2,6 C 76 % 1013 hPa 0,0 l/m 0,0 m/s (0 Bft) SW 215 0 min 0 lux 1,6 C 5,5 C
13.04.2006 01:15 5,5 C 2,4 C 76 % 1013 hPa 0,0 l/m 0,0 m/s (0 Bft) SW 215 0 min 0 lux 1,6 C 5,5 C
13.04.2006 01:20 5,5 C 2,2 C 76 % 1013 hPa 0,0 l/m 0,0 m/s (0 Bft) SW 215 0 min 0 lux 1,6 C 5,5 C
13.04.2006 01:25 5,5 C 2,2 C 76 % 1013 hPa 0,0 l/m 0,0 m/s (0 Bft) SW 215 0 min 0 lux 1,6 C 5,5 C
13.04.2006 01:30 5,5 C 2,0 C 76 % 1013 hPa 0,0 l/m 0,0 m/s (0 Bft) SW 215 0 min 0 lux 1,6 C 5,5 C
13.04.2006 01:35 5,5 C 1,9 C 76 % 1013 hPa 0,0 l/m 0,0 m/s (0 Bft) SW 215 0 min 0 lux 1,6 C 5,5 C
13.04.2006 01:40 5,5 C 1,9 C 76 % 1013 hPa 0,0 l/m 0,0 m/s (0 Bft) SW 215 0 min 0 lux 1,6 C 5,5 C
13.04.2006 01:45 5,5 C 1,7 C 76 % 1013 hPa 0,0 l/m 0,0 m/s (0 Bft) SW 215 0 min 0 lux 1,6 C 5,5 C
13.04.2006 01:50 5,5 C 1,6 C 76 % 1013 hPa 0,0 l/m 0,0 m/s (0 Bft) SW 215 0 min 0 lux 1,6 C 5,5 C
13.04.2006 01:55 5,5 C 1,5 C 76 % 1013 hPa 0,0 l/m 0,0 m/s (0 Bft) SW 215 0 min 0 lux 1,6 C 5,5 C
13.04.2006 02:00 5,5 C 1,5 C 76 % 1013 hPa 0,0 l/m 0,0 m/s (0 Bft) SW 215 0 min 0 lux 1,6 C 5,5 C
13.04.2006 02:05 5,5 C 1,4 C 76 % 1013 hPa 0,0 l/m 0,0 m/s (0 Bft) SW 215 0 min 0 lux 1,6 C 5,5 C
13.04.2006 02:10 5,5 C 1,4 C 76 % 1013 hPa 0,0 l/m 0,0 m/s (0 Bft) SW 215 0 min 0 lux 1,6 C 5,5 C
13.04.2006 02:15 5,5 C 1,4 C 76 % 1013 hPa 0,0 l/m 0,0 m/s (0 Bft) SW 215 0 min 0 lux 1,6 C 5,5 C
13.04.2006 02:20 5,5 C 1,2 C 76 % 1013 hPa 0,0 l/m 0,0 m/s (0 Bft) SW 215 0 min 0 lux 1,6 C 5,5 C
13.04.2006 02:25 5,5 C 1,2 C 76 % 1013 hPa 0,0 l/m 0,0 m/s (0 Bft) S-SW 210 0 min 0 lux 1,6 C 5,5 C
13.04.2006 02:30 5,5 C 1,2 C 76 % 1013 hPa 0,0 l/m 0,0 m/s (0 Bft) S-SW 210 0 min 0 lux 1,6 C 5,5 C
13.04.2006 02:35 0,1 C 1,1 C 94 % 1013 hPa 0,0 l/m 0,0 m/s (0 Bft) S-SW 210 0 min 0 lux -0,7 C 0,1 C
13.04.2006 02:40 0,1 C 1,1 C 94 % 1013 hPa 0,0 l/m 0,0 m/s (0 Bft) S-SW 210 0 min 0 lux -0,7 C 0,1 C
13.04.2006 02:45 0,1 C 1,1 C 94 % 1013 hPa 0,0 l/m 0,0 m/s (0 Bft) S-SW 210 0 min 0 lux -0,7 C 0,1 C
13.04.2006 02:50 0,1 C 1,1 C 94 % 1013 hPa 0,0 l/m 0,0 m/s (0 Bft) S-SW 210 0 min 0 lux -0,7 C 0,1 C
13.04.2006 02:55 0,1 C 1,1 C 94 % 1013 hPa 0,0 l/m 0,0 m/s (0 Bft) S-SW 210 0 min 0 lux -0,7 C 0,1 C
13.04.2006 03:00 0,1 C 1,1 C 94 % 1013 hPa 0,0 l/m 0,0 m/s (0 Bft) S-SW 210 0 min 0 lux -0,7 C 0,1 C
13.04.2006 03:05 0,1 C 1,1 C 94 % 1013 hPa 0,0 l/m 0,0 m/s (0 Bft) S-SW 210 0 min 0 lux -0,7 C 0,1 C
13.04.2006 03:10 0,1 C 1,1 C 94 % 1013 hPa 0,0 l/m 0,0 m/s (0 Bft) S-SW 210 0 min 0 lux -0,7 C 0,1 C
13.04.2006 03:15 0,2 C 1,1 C 95 % 1013 hPa 0,0 l/m 0,0 m/s (0 Bft) S-SW 210 0 min 0 lux -0,5 C 0,2 C
13.04.2006 03:20 0,2 C 1,1 C 95 % 1013 hPa 0,0 l/m 0,0 m/s (0 Bft) S-SW 210 0 min 0 lux -0,5 C 0,2 C
13.04.2006 03:25 0,2 C 1,0 C 95 % 1013 hPa 0,0 l/m 0,0 m/s (0 Bft) S-SW 210 0 min 0 lux -0,5 C 0,2 C
13.04.2006 03:30 0,2 C 1,0 C 95 % 1013 hPa 0,0 l/m 0,0 m/s (0 Bft) S-SW 210 0 min 0 lux -0,5 C 0,2 C
13.04.2006 03:35 0,2 C 1,0 C 95 % 1013 hPa 0,0 l/m 0,0 m/s (0 Bft) S-SW 210 0 min 0 lux -0,5 C 0,2 C
13.04.2006 03:40 0,2 C 1,0 C 95 % 1013 hPa 0,0 l/m 0,0 m/s (0 Bft) S-SW 210 0 min 0 lux -0,5 C 0,2 C
13.04.2006 03:45 0,2 C 1,0 C 95 % 1013 hPa 0,0 l/m 0,0 m/s (0 Bft) S-SW 210 0 min 0 lux -0,5 C 0,2 C
13.04.2006 03:50 0,2 C 1,0 C 95 % 1013 hPa 0,0 l/m 0,0 m/s (0 Bft) S-SW 210 0 min 0 lux -0,5 C 0,2 C
13.04.2006 03:55 0,2 C 1,0 C 95 % 1013 hPa 0,0 l/m 0,0 m/s (0 Bft) S-SW 210 0 min 0 lux -0,5 C 0,2 C
13.04.2006 04:00 0,2 C 1,0 C 95 % 1013 hPa 0,0 l/m 0,0 m/s (0 Bft) S-SW 210 0 min 0 lux -0,5 C 0,2 C
13.04.2006 04:05 0,2 C 1,0 C 95 % 1013 hPa 0,0 l/m 0,0 m/s (0 Bft) S-SW 210 0 min 0 lux -0,5 C 0,2 C
13.04.2006 04:10 0,2 C 1,0 C 95 % 1013 hPa 0,0 l/m 0,0 m/s (0 Bft) W-NW45 300 0 min 0 lux -0,5 C 0,2 C
13.04.2006 04:15 0,2 C 1,0 C 95 % 1013 hPa 0,0 l/m 0,0 m/s (0 Bft) NW 315 0 min 0 lux -0,5 C 0,2 C
13.04.2006 04:20 0,2 C 1,1 C 95 % 1013 hPa 0,0 l/m 0,0 m/s (0 Bft) NW 315 0 min 0 lux -0,5 C 0,2 C
13.04.2006 04:25 0,2 C 1,2 C 95 % 1013 hPa 0,0 l/m 0,0 m/s (0 Bft) NW 315 0 min 0 lux -0,5 C 0,2 C
13.04.2006 04:30 0,5 C 1,2 C 95 % 1012 hPa 0,0 l/m 0,0 m/s (0 Bft) NW 315 0 min 0 lux -0,2 C 0,5 C
13.04.2006 04:35 0,5 C 1,2 C 95 % 1012 hPa 0,0 l/m 0,0 m/s (0 Bft) NW 315 0 min 0 lux -0,2 C 0,5 C
13.04.2006 04:40 0,6 C 1,3 C 95 % 1012 hPa 0,0 l/m 0,0 m/s (0 Bft) NW 315 0 min 0 lux -0,1 C 0,6 C
13.04.2006 04:45 1,0 C 1,3 C 95 % 1012 hPa 0,0 l/m 0,0 m/s (0 Bft) NW 315 0 min 0 lux 0,3 C 1,0 C
13.04.2006 04:50 1,0 C 1,3 C 95 % 1012 hPa 0,0 l/m 0,0 m/s (0 Bft) NW 315 0 min 0 lux 0,3 C 1,0 C
13.04.2006 04:55 1,0 C 1,4 C 95 % 1012 hPa 0,0 l/m 0,0 m/s (0 Bft) NW 315 0 min 0 lux 0,3 C 1,0 C
13.04.2006 05:00 1,1 C 1,4 C 95 % 1012 hPa 0,0 l/m 0,0 m/s (0 Bft) NW 315 0 min 0 lux 0,4 C 1,1 C
13.04.2006 05:05 0,9 C 1,4 C 95 % 1012 hPa 0,0 l/m 0,0 m/s (0 Bft) NW 315 0 min 0 lux 0,2 C 0,9 C
13.04.2006 05:10 0,6 C 1,4 C 95 % 1012 hPa 0,0 l/m 0,0 m/s (0 Bft) NW 315 0 min 0 lux -0,1 C 0,6 C
13.04.2006 05:15 0,5 C 1,3 C 95 % 1012 hPa 0,0 l/m 0,0 m/s (0 Bft) NW 315 0 min 0 lux -0,2 C 0,5 C
13.04.2006 05:20 0,5 C 1,3 C 95 % 1012 hPa 0,0 l/m 0,0 m/s (0 Bft) NW 315 0 min 0 lux -0,2 C 0,5 C
13.04.2006 05:25 0,9 C 1,2 C 95 % 1012 hPa 0,0 l/m 0,0 m/s (0 Bft) NW 315 0 min 0 lux 0,2 C 0,9 C
13.04.2006 05:30 0,8 C 1,3 C 95 % 1012 hPa 0,0 l/m 0,0 m/s (0 Bft) NW 315 0 min 0 lux 0,1 C 0,8 C
13.04.2006 05:35 0,8 C 1,3 C 95 % 1012 hPa 0,0 l/m 0,0 m/s (0 Bft) NW 315 0 min 0 lux 0,1 C 0,8 C
13.04.2006 05:40 0,6 C 1,3 C 95 % 1012 hPa 0,0 l/m 0,0 m/s (0 Bft) NW 315 0 min 0 lux -0,1 C 0,6 C
13.04.2006 05:45 0,6 C 1,3 C 95 % 1012 hPa 0,0 l/m 0,0 m/s (0 Bft) NW 315 0 min 0 lux -0,1 C 0,6 C
13.04.2006 05:50 1,2 C 1,3 C 95 % 1012 hPa 0,0 l/m 0,0 m/s (0 Bft) NW 315 0 min 0 lux 0,5 C 1,2 C
13.04.2006 05:55 1,1 C 1,3 C 95 % 1012 hPa 0,0 l/m 0,0 m/s (0 Bft) NW 315 0 min 0 lux 0,4 C 1,1 C
13.04.2006 06:00 1,1 C 1,4 C 95 % 1012 hPa 0,0 l/m 0,0 m/s (0 Bft) W-NW22.5 285 0 min 0 lux 0,4 C 1,1 C
13.04.2006 06:05 1,1 C 1,4 C 95 % 1012 hPa 0,0 l/m 0,0 m/s (0 Bft) W-NW 285 0 min 0 lux 0,4 C 1,1 C
13.04.2006 06:10 1,2 C 1,5 C 95 % 1012 hPa 0,0 l/m 0,0 m/s (0 Bft) W-NW 285 0 min 0 lux 0,5 C 1,2 C
13.04.2006 06:15 1,1 C 1,5 C 95 % 1011 hPa 0,0 l/m 0,0 m/s (0 Bft) W-NW 285 0 min 0 lux 0,4 C 1,1 C
13.04.2006 06:20 1,2 C 1,5 C 95 % 1011 hPa 0,0 l/m 0,0 m/s (0 Bft) W-NW 285 0 min 0 lux 0,5 C 1,2 C
13.04.2006 06:25 1,4 C 1,6 C 95 % 1011 hPa 0,0 l/m 0,0 m/s (0 Bft) W-NW 285 0 min 0 lux 0,7 C 1,4 C
13.04.2006 06:30 1,2 C 1,6 C 95 % 1011 hPa 0,0 l/m 0,3 m/s (0 Bft) W-NW 285 0 min 0 lux 0,5 C 1,2 C
13.04.2006 06:35 1,2 C 1,6 C 95 % 1011 hPa 0,0 l/m 0,0 m/s (0 Bft) W-NW 285 0 min 0 lux 0,5 C 1,2 C
13.04.2006 06:40 1,4 C 1,7 C 95 % 1011 hPa 0,0 l/m 0,0 m/s (0 Bft) W-NW 285 0 min 0 lux 0,7 C 1,4 C
13.04.2006 06:45 1,5 C 1,7 C 95 % 1011 hPa 0,0 l/m 0,0 m/s (0 Bft) W-NW 285 0 min 0 lux 0,8 C 1,5 C
13.04.2006 06:50 1,5 C 1,7 C 95 % 1011 hPa 0,0 l/m 0,0 m/s (0 Bft) W-NW 285 0 min 0 lux 0,8 C 1,5 C
13.04.2006 06:55 1,7 C 1,8 C 95 % 1011 hPa 0,0 l/m 0,0 m/s (0 Bft) W-NW 285 0 min 0 lux 1,0 C 1,7 C
13.04.2006 07:00 1,9 C 1,8 C 95 % 1011 hPa 0,0 l/m 0,0 m/s (0 Bft) W-NW 285 0 min 0 lux 1,2 C 1,9 C
13.04.2006 07:05 2,3 C 1,9 C 95 % 1011 hPa 0,0 l/m 0,0 m/s (0 Bft) W-NW 285 0 min 0 lux 1,6 C 2,3 C
13.04.2006 07:10 2,3 C 2,0 C 95 % 1011 hPa 0,0 l/m 0,0 m/s (0 Bft) W-NW 285 0 min 0 lux 1,6 C 2,3 C
13.04.2006 07:15 2,4 C 2,2 C 95 % 1011 hPa 0,0 l/m 0,0 m/s (0 Bft) W-NW 285 0 min 0 lux 1,7 C 2,4 C
13.04.2006 07:20 2,2 C 2,2 C 95 % 1011 hPa 0,0 l/m 0,0 m/s (0 Bft) W-NW 285 0 min 0 lux 1,5 C 2,2 C
13.04.2006 07:25 2,3 C 2,3 C 95 % 1011 hPa 0,0 l/m 0,2 m/s (0 Bft) N-NO22.5 15 0 min 0 lux 1,6 C 2,3 C
13.04.2006 07:30 2,5 C 2,4 C 95 % 1011 hPa 0,0 l/m 0,0 m/s (0 Bft) N-NO 15 0 min 0 lux 1,8 C 2,5 C
13.04.2006 07:35 2,6 C 2,5 C 95 % 1011 hPa 0,0 l/m 0,3 m/s (0 Bft) O-NO45 60 0 min 0 lux 1,9 C 2,6 C
13.04.2006 07:40 2,7 C 2,6 C 95 % 1011 hPa 0,0 l/m 0,0 m/s (0 Bft) O-NO 60 0 min 0 lux 2,0 C 2,7 C
13.04.2006 07:45 2,8 C 2,7 C 95 % 1011 hPa 0,0 l/m 0,0 m/s (0 Bft) O-NO 60 0 min 0 lux 2,1 C 2,8 C
13.04.2006 07:50 3,0 C 2,9 C 95 % 1011 hPa 0,0 l/m 0,0 m/s (0 Bft) O-NO 60 0 min 0 lux 2,3 C 3,0 C
13.04.2006 07:55 2,9 C 3,0 C 95 % 1011 hPa 0,0 l/m 0,1 m/s (0 Bft) O 80 0 min 0 lux 2,2 C 2,9 C
13.04.2006 08:00 3,1 C 3,0 C 95 % 1011 hPa 0,0 l/m 0,1 m/s (0 Bft) O 80 0 min 0 lux 2,4 C 3,1 C
13.04.2006 08:05 3,4 C 3,3 C 95 % 1011 hPa 0,0 l/m 0,1 m/s (0 Bft) O 80 0 min 0 lux 2,7 C 3,4 C
13.04.2006 08:10 3,5 C 3,4 C 95 % 1011 hPa 0,0 l/m 1,0 m/s (1 Bft) NO45 45 0 min 0 lux 2,8 C 3,5 C
13.04.2006 08:15 3,7 C 3,5 C 95 % 1011 hPa 0,0 l/m 0,0 m/s (0 Bft) W-SW22.5 250 0 min 0 lux 3,0 C 3,7 C
13.04.2006 08:20 3,8 C 3,7 C 95 % 1011 hPa 0,0 l/m 2,9 m/s (2 Bft) W-SW22.5 250 0 min 0 lux 3,1 C 0,5 C
13.04.2006 08:25 4,0 C 3,8 C 92 % 1011 hPa 0,0 l/m 2,3 m/s (2 Bft) W67.5 265 0 min 0 lux 2,8 C 2,5 C
13.04.2006 08:30 4,0 C 4,0 C 92 % 1011 hPa 0,0 l/m 2,1 m/s (2 Bft) W-SW22.5 245 0 min 0 lux 2,8 C 3,0 C
13.04.2006 08:35 4,4 C 4,2 C 89 % 1011 hPa 0,0 l/m 6,4 m/s (4 Bft) W-SW22.5 245 0 min 0 lux 2,7 C -5,1 C
13.04.2006 08:40 4,7 C 4,4 C 84 % 1011 hPa 0,0 l/m 2,6 m/s (2 Bft) W22.5 260 0 min 0 lux 2,2 C 2,3 C
13.04.2006 08:45 4,7 C 4,5 C 84 % 1011 hPa 0,0 l/m 4,2 m/s (3 Bft) W-SW45 250 0 min 0 lux 2,2 C -1,3 C
13.04.2006 08:50 5,1 C 4,7 C 77 % 1011 hPa 0,0 l/m 5,8 m/s (4 Bft) W-SW22.5 245 0 min 0 lux 1,4 C -3,4 C
13.04.2006 08:55 5,1 C 4,9 C 75 % 1011 hPa 0,0 l/m 3,7 m/s (3 Bft) W-SW45 250 0 min 0 lux 1,0 C 0,1 C
13.04.2006 09:00 5,1 C 5,0 C 72 % 1011 hPa 0,0 l/m 5,2 m/s (3 Bft) W-SW45 250 0 min 0 lux 0,5 C -2,5 C
13.04.2006 09:05 5,2 C 5,1 C 72 % 1011 hPa 0,0 l/m 7,1 m/s (4 Bft) W-SW45 245 0 min 0 lux 0,6 C -4,8 C
13.04.2006 09:10 5,3 C 5,2 C 71 % 1011 hPa 0,0 l/m 5,7 m/s (4 Bft) W-SW22.5 245 0 min 0 lux 0,5 C -2,9 C
13.04.2006 09:15 5,4 C 5,3 C 70 % 1011 hPa 0,0 l/m 5,5 m/s (4 Bft) W-SW67.5 240 0 min 0 lux 0,4 C -2,6 C
13.04.2006 09:20 5,3 C 5,3 C 70 % 1011 hPa 0,0 l/m 7,4 m/s (4 Bft) W-SW45 250 0 min 0 lux 0,3 C -5,1 C
13.04.2006 09:25 5,4 C 5,5 C 70 % 1010 hPa 0,0 l/m 4,8 m/s (3 Bft) W-SW45 245 0 min 0 lux 0,4 C -1,5 C
13.04.2006 09:30 5,5 C 5,5 C 69 % 1010 hPa 0,0 l/m 6,0 m/s (4 Bft) W-SW45 250 0 min 0 lux 0,3 C -3,1 C
13.04.2006 09:35 5,5 C 5,6 C 69 % 1010 hPa 0,0 l/m 5,3 m/s (3 Bft) W-SW67.5 240 0 min 0 lux 0,3 C -2,2 C
13.04.2006 09:40 5,8 C 5,7 C 68 % 1010 hPa 0,0 l/m 6,3 m/s (4 Bft) SW67.5 235 0 min 0 lux 0,4 C -3,1 C
13.04.2006 09:45 5,8 C 5,9 C 68 % 1010 hPa 0,0 l/m 6,3 m/s (4 Bft) W-SW45 245 0 min 0 lux 0,4 C -3,1 C
13.04.2006 09:50 6,0 C 6,0 C 67 % 1010 hPa 0,0 l/m 5,2 m/s (3 Bft) SW45 235 0 min 0 lux 0,3 C -1,4 C
13.04.2006 09:55 6,3 C 6,2 C 66 % 1010 hPa 0,0 l/m 6,3 m/s (4 Bft) W-SW67.5 240 0 min 0 lux 0,4 C -2,4 C
13.04.2006 10:00 6,6 C 6,5 C 66 % 1010 hPa 0,0 l/m 5,4 m/s (3 Bft) W-SW67.5 240 0 min 0 lux 0,7 C -0,9 C
13.04.2006 10:05 6,5 C 6,6 C 65 % 1010 hPa 0,0 l/m 6,8 m/s (4 Bft) W-SW45 240 0 min 0 lux 0,4 C -2,8 C
13.04.2006 10:10 6,3 C 6,6 C 66 % 1010 hPa 0,0 l/m 6,8 m/s (4 Bft) W-SW45 240 0 min 0 lux 0,4 C -3,0 C
13.04.2006 10:15 6,2 C 6,6 C 66 % 1010 hPa 0,0 l/m 6,7 m/s (4 Bft) W-SW67.5 250 0 min 0 lux 0,3 C -3,0 C
13.04.2006 10:20 6,3 C 6,6 C 67 % 1010 hPa 0,0 l/m 6,1 m/s (4 Bft) SW45 235 0 min 0 lux 0,6 C -2,1 C
13.04.2006 10:25 6,2 C 6,7 C 67 % 1010 hPa 0,0 l/m 7,1 m/s (4 Bft) SW45 230 0 min 0 lux 0,5 C -3,5 C
13.04.2006 10:30 6,1 C 6,7 C 68 % 1010 hPa 0,0 l/m 5,5 m/s (4 Bft) W-SW45 240 0 min 0 lux 0,6 C -1,7 C
13.04.2006 10:35 6,2 C 6,6 C 68 % 1010 hPa 0,0 l/m 7,7 m/s (4 Bft) SW45 235 0 min 0 lux 0,7 C -4,1 C
13.04.2006 10:40 6,0 C 6,6 C 69 % 1010 hPa 0,0 l/m 7,1 m/s (4 Bft) W-SW45 240 0 min 0 lux 0,8 C -3,7 C
13.04.2006 10:45 6,0 C 6,5 C 69 % 1010 hPa 0,0 l/m 5,8 m/s (4 Bft) W-SW45 240 0 min 0 lux 0,8 C -2,3 C
13.04.2006 10:50 6,0 C 6,5 C 70 % 1010 hPa 0,0 l/m 7,3 m/s (4 Bft) W-SW45 245 0 min 0 lux 1,0 C -4,0 C
13.04.2006 10:55 5,9 C 6,4 C 72 % 1010 hPa 0,0 l/m 6,0 m/s (4 Bft) W-SW67.5 245 0 min 0 lux 1,2 C -2,6 C
13.04.2006 11:00 5,9 C 6,4 C 72 % 1010 hPa 0,0 l/m 4,8 m/s (3 Bft) W-SW45 245 0 min 0 lux 1,2 C -0,9 C
13.04.2006 11:05 5,9 C 6,3 C 73 % 1010 hPa 0,0 l/m 6,0 m/s (4 Bft) W-SW45 250 0 min 0 lux 1,4 C -2,6 C
13.04.2006 11:10 5,9 C 6,3 C 73 % 1010 hPa 0,0 l/m 7,3 m/s (4 Bft) W-SW67.5 240 0 min 0 lux 1,4 C -4,1 C
13.04.2006 11:15 6,0 C 6,3 C 72 % 1010 hPa 0,0 l/m 5,4 m/s (3 Bft) W-SW45 240 0 min 0 lux 1,3 C -1,7 C
13.04.2006 11:20 5,9 C 6,3 C 73 % 1010 hPa 0,0 l/m 7,4 m/s (4 Bft) W-SW45 240 0 min 0 lux 1,4 C -4,2 C
13.04.2006 11:25 6,0 C 6,3 C 73 % 1010 hPa 0,0 l/m 6,1 m/s (4 Bft) W-SW45 245 0 min 0 lux 1,5 C -2,6 C
13.04.2006 11:30 6,0 C 6,3 C 73 % 1010 hPa 0,0 l/m 5,1 m/s (3 Bft) W-SW67.5 250 0 min 0 lux 1,5 C -1,2 C
13.04.2006 11:35 6,0 C 6,3 C 73 % 1010 hPa 0,0 l/m 4,8 m/s (3 Bft) W-SW45 245 0 min 0 lux 1,5 C -0,8 C
13.04.2006 11:40 6,0 C 6,3 C 74 % 1010 hPa 0,0 l/m 4,6 m/s (3 Bft) W-SW45 240 0 min 0 lux 1,7 C -0,4 C
13.04.2006 11:45 6,0 C 6,2 C 75 % 1010 hPa 0,0 l/m 5,7 m/s (4 Bft) W-SW67.5 245 0 min 0 lux 1,9 C -2,0 C
13.04.2006 11:50 6,1 C 6,2 C 75 % 1010 hPa 0,0 l/m 4,7 m/s (3 Bft) W-SW45 245 0 min 0 lux 2,0 C -0,4 C
13.04.2006 11:55 6,1 C 6,3 C 75 % 1010 hPa 0,0 l/m 3,9 m/s (3 Bft) W-SW45 240 0 min 0 lux 2,0 C 0,9 C
13.04.2006 12:00 6,3 C 6,4 C 75 % 1010 hPa 0,0 l/m 4,4 m/s (3 Bft) SW67.5 235 0 min 0 lux 2,2 C 0,2 C
13.04.2006 12:05 6,3 C 6,4 C 74 % 1010 hPa 0,0 l/m 4,9 m/s (3 Bft) W-SW45 245 0 min 0 lux 2,0 C -0,5 C
13.04.2006 12:10 6,4 C 6,5 C 74 % 1010 hPa 0,0 l/m 3,9 m/s (3 Bft) SW22.5 230 0 min 0 lux 2,1 C 1,2 C
13.04.2006 12:15 6,5 C 6,6 C 74 % 1010 hPa 0,0 l/m 3,8 m/s (3 Bft) W-SW45 240 0 min 0 lux 2,2 C 1,7 C
13.04.2006 12:20 6,6 C 6,7 C 74 % 1010 hPa 0,0 l/m 4,2 m/s (3 Bft) W-SW45 245 0 min 0 lux 2,3 C 1,0 C
13.04.2006 12:25 6,5 C 6,7 C 73 % 1010 hPa 0,0 l/m 5,8 m/s (4 Bft) SW45 235 0 min 0 lux 2,0 C -1,6 C
13.04.2006 12:30 6,7 C 6,8 C 73 % 1010 hPa 0,0 l/m 4,5 m/s (3 Bft) W-SW45 245 0 min 0 lux 2,2 C 0,6 C
13.04.2006 12:35 6,7 C 6,8 C 74 % 1010 hPa 0,0 l/m 4,8 m/s (3 Bft) W-SW45 240 0 min 0 lux 2,4 C 0,2 C
13.04.2006 12:40 6,8 C 6,9 C 74 % 1010 hPa 0,0 l/m 4,7 m/s (3 Bft) W-SW45 240 0 min 0 lux 2,5 C 0,3 C
13.04.2006 12:45 7,0 C 7,0 C 74 % 1009 hPa 0,0 l/m 4,5 m/s (3 Bft) SW67.5 235 0 min 0 lux 2,7 C 1,0 C
13.04.2006 12:50 7,1 C 7,1 C 74 % 1009 hPa 0,0 l/m 5,1 m/s (3 Bft) W-SW67.5 240 0 min 0 lux 2,8 C 0,2 C
13.04.2006 12:55 7,2 C 7,1 C 73 % 1009 hPa 0,0 l/m 4,8 m/s (3 Bft) W-SW45 250 0 min 0 lux 2,7 C 0,8 C
13.04.2006 13:00 7,2 C 7,3 C 73 % 1009 hPa 0,0 l/m 6,9 m/s (4 Bft) SW67.5 230 0 min 0 lux 2,7 C -1,9 C
13.04.2006 13:05 7,3 C 7,4 C 70 % 1009 hPa 0,0 l/m 9,3 m/s (5 Bft) W-SW45 250 0 min 0 lux 2,2 C -3,9 C
13.04.2006 13:10 7,4 C 7,5 C 70 % 1009 hPa 0,0 l/m 7,5 m/s (4 Bft) W-SW67.5 245 0 min 0 lux 2,3 C -2,2 C
13.04.2006 13:15 7,4 C 7,5 C 69 % 1009 hPa 0,0 l/m 8,8 m/s (5 Bft) W-SW22.5 250 0 min 0 lux 2,1 C -3,4 C
13.04.2006 13:20 7,4 C 7,6 C 68 % 1009 hPa 0,0 l/m 6,5 m/s (4 Bft) W-SW67.5 255 0 min 0 lux 1,9 C -1,2 C
13.04.2006 13:25 7,4 C 7,6 C 68 % 1009 hPa 0,0 l/m 6,1 m/s (4 Bft) W-SW45 245 0 min 0 lux 1,9 C -0,8 C
13.04.2006 13:30 7,4 C 7,6 C 69 % 1009 hPa 0,0 l/m 6,8 m/s (4 Bft) W-SW45 250 0 min 0 lux 2,1 C -1,5 C
13.04.2006 13:35 7,4 C 7,7 C 69 % 1009 hPa 0,0 l/m 6,6 m/s (4 Bft) W-SW45 250 0 min 0 lux 2,1 C -1,3 C
13.04.2006 13:40 7,4 C 7,7 C 69 % 1009 hPa 0,0 l/m 6,7 m/s (4 Bft) W-SW67.5 250 0 min 0 lux 2,1 C -1,4 C
13.04.2006 13:45 7,4 C 7,7 C 69 % 1009 hPa 0,0 l/m 7,8 m/s (4 Bft) W-SW45 240 0 min 0 lux 2,1 C -2,6 C
13.04.2006 13:50 7,4 C 7,7 C 69 % 1009 hPa 0,0 l/m 8,4 m/s (5 Bft) W-SW67.5 240 0 min 0 lux 2,1 C -3,0 C
13.04.2006 13:55 7,3 C 7,7 C 70 % 1009 hPa 0,0 l/m 7,0 m/s (4 Bft) W-SW45 250 0 min 0 lux 2,2 C -1,9 C
13.04.2006 14:00 7,3 C 7,6 C 70 % 1010 hPa 0,0 l/m 6,1 m/s (4 Bft) W-SW22.5 250 0 min 0 lux 2,2 C -0,8 C
13.04.2006 14:05 7,2 C 7,6 C 71 % 1010 hPa 0,0 l/m 7,4 m/s (4 Bft) W22.5 260 0 min 0 lux 2,3 C -2,4 C
13.04.2006 14:10 7,1 C 7,6 C 72 % 1010 hPa 0,0 l/m 6,7 m/s (4 Bft) W-SW22.5 245 0 min 0 lux 2,4 C -1,9 C
13.04.2006 14:15 7,1 C 7,6 C 72 % 1010 hPa 0,0 l/m 7,3 m/s (4 Bft) W-SW45 255 0 min 0 lux 2,4 C -2,5 C
13.04.2006 14:20 6,9 C 7,5 C 75 % 1010 hPa 0,0 l/m 7,8 m/s (4 Bft) W-SW45 255 0 min 0 lux 2,8 C -3,2 C
13.04.2006 14:25 6,8 C 7,5 C 76 % 1010 hPa 0,0 l/m 5,7 m/s (4 Bft) W-SW22.5 250 0 min 0 lux 2,9 C -1,0 C
13.04.2006 14:30 6,8 C 7,4 C 77 % 1010 hPa 0,0 l/m 5,9 m/s (4 Bft) W-SW45 255 0 min 0 lux 3,1 C -1,3 C
13.04.2006 14:35 6,8 C 7,3 C 79 % 1010 hPa 0,0 l/m 5,1 m/s (3 Bft) W-SW45 250 0 min 0 lux 3,4 C -0,3 C
13.04.2006 14:40 6,8 C 7,2 C 80 % 1010 hPa 0,0 l/m 5,6 m/s (4 Bft) W-SW45 250 0 min 0 lux 3,6 C -0,9 C
13.04.2006 14:45 6,8 C 7,2 C 80 % 1009 hPa 0,0 l/m 3,9 m/s (3 Bft) W-SW45 250 0 min 0 lux 3,6 C 1,6 C
13.04.2006 14:50 6,8 C 7,2 C 81 % 1009 hPa 0,0 l/m 7,9 m/s (4 Bft) W-SW45 250 0 min 0 lux 3,8 C -3,5 C
13.04.2006 14:55 6,9 C 7,2 C 81 % 1009 hPa 0,0 l/m 4,8 m/s (3 Bft) W-SW45 250 0 min 0 lux 3,9 C 0,4 C
13.04.2006 15:00 6,9 C 7,2 C 80 % 1009 hPa 0,0 l/m 7,2 m/s (4 Bft) W-SW45 250 0 min 0 lux 3,7 C -2,6 C
13.04.2006 15:05 7,0 C 7,2 C 79 % 1009 hPa 0,0 l/m 5,7 m/s (4 Bft) W-SW22.5 250 0 min 0 lux 3,6 C -0,7 C
13.04.2006 15:10 7,1 C 7,2 C 78 % 1009 hPa 0,0 l/m 4,0 m/s (3 Bft) W-SW45 240 0 min 0 lux 3,5 C 2,0 C
13.04.2006 15:15 7,3 C 7,3 C 78 % 1009 hPa 0,0 l/m 5,6 m/s (4 Bft) W-SW45 250 0 min 0 lux 3,7 C -0,3 C
13.04.2006 15:20 7,4 C 7,3 C 77 % 1009 hPa 0,0 l/m 5,5 m/s (4 Bft) W-SW22.5 250 0 min 0 lux 3,6 C -0,0 C
13.04.2006 15:25 7,4 C 7,4 C 76 % 1009 hPa 0,0 l/m 4,8 m/s (3 Bft) W-SW45 255 0 min 0 lux 3,5 C 1,0 C
13.04.2006 15:30 7,4 C 7,5 C 76 % 1009 hPa 0,0 l/m 5,1 m/s (3 Bft) SW45 235 0 min 0 lux 3,5 C 0,5 C
13.04.2006 15:35 7,4 C 7,5 C 76 % 1009 hPa 0,0 l/m 5,6 m/s (4 Bft) W-SW45 240 0 min 0 lux 3,5 C -0,1 C
13.04.2006 15:40 7,5 C 7,6 C 76 % 1009 hPa 0,0 l/m 5,1 m/s (3 Bft) SW67.5 235 0 min 0 lux 3,5 C 0,7 C
13.04.2006 15:45 7,6 C 7,6 C 76 % 1009 hPa 0,0 l/m 5,9 m/s (4 Bft) SW67.5 225 0 min 0 lux 3,6 C -0,3 C
13.04.2006 15:50 7,6 C 7,6 C 76 % 1009 hPa 0,0 l/m 5,3 m/s (3 Bft) W-SW45 240 0 min 0 lux 3,6 C 0,5 C
13.04.2006 15:55 7,6 C 7,6 C 76 % 1009 hPa 0,0 l/m 5,8 m/s (4 Bft) W-SW45 240 0 min 0 lux 3,6 C -0,1 C
13.04.2006 16:00 7,6 C 7,7 C 75 % 1009 hPa 0,0 l/m 5,4 m/s (3 Bft) SW45 235 0 min 0 lux 3,5 C 0,3 C
13.04.2006 16:05 7,7 C 7,7 C 75 % 1009 hPa 0,0 l/m 7,1 m/s (4 Bft) W-SW67.5 245 0 min 0 lux 3,6 C -1,5 C
13.04.2006 16:10 7,7 C 7,8 C 75 % 1009 hPa 0,0 l/m 6,3 m/s (4 Bft) SW45 235 0 min 0 lux 3,6 C -0,5 C
13.04.2006 16:15 7,8 C 7,9 C 74 % 1009 hPa 0,0 l/m 4,8 m/s (3 Bft) W-SW67.5 240 0 min 0 lux 3,5 C 1,5 C
13.04.2006 16:20 7,9 C 7,9 C 74 % 1009 hPa 0,0 l/m 6,1 m/s (4 Bft) W-SW45 240 0 min 0 lux 3,6 C -0,0 C
13.04.2006 16:25 7,9 C 8,0 C 74 % 1009 hPa 0,0 l/m 5,2 m/s (3 Bft) SW45 235 0 min 0 lux 3,6 C 1,0 C
13.04.2006 16:30 8,0 C 8,0 C 73 % 1009 hPa 0,0 l/m 5,1 m/s (3 Bft) W-SW45 250 0 min 0 lux 3,5 C 1,3 C
13.04.2006 16:35 8,0 C 8,0 C 72 % 1009 hPa 0,0 l/m 5,6 m/s (4 Bft) SW45 235 0 min 0 lux 3,3 C 0,7 C
13.04.2006 16:40 8,0 C 8,1 C 72 % 1009 hPa 0,0 l/m 5,6 m/s (4 Bft) SW45 235 0 min 0 lux 3,3 C 0,7 C
13.04.2006 16:45 8,1 C 8,1 C 71 % 1009 hPa 0,0 l/m 5,5 m/s (3 Bft) SW45 230 0 min 0 lux 3,2 C 0,9 C
13.04.2006 16:50 8,1 C 8,1 C 72 % 1009 hPa 0,0 l/m 7,4 m/s (4 Bft) W-SW45 245 0 min 0 lux 3,4 C -1,2 C
13.04.2006 16:55 8,0 C 8,2 C 72 % 1009 hPa 0,0 l/m 6,4 m/s (4 Bft) W22.5 260 0 min 0 lux 3,3 C -0,3 C
13.04.2006 17:00 8,0 C 8,2 C 72 % 1009 hPa 0,0 l/m 4,7 m/s (3 Bft) W-SW67.5 250 0 min 0 lux 3,3 C 1,9 C
13.04.2006 17:05 7,9 C 8,1 C 74 % 1009 hPa 0,0 l/m 5,6 m/s (4 Bft) W-SW45 250 0 min 0 lux 3,6 C 0,6 C
13.04.2006 17:10 7,9 C 8,1 C 75 % 1009 hPa 0,0 l/m 4,6 m/s (3 Bft) W-SW45 250 0 min 0 lux 3,7 C 2,0 C
13.04.2006 17:15 7,9 C 8,1 C 75 % 1009 hPa 0,0 l/m 5,3 m/s (3 Bft) W-SW45 245 0 min 0 lux 3,7 C 1,0 C
13.04.2006 17:20 7,9 C 8,1 C 75 % 1009 hPa 0,0 l/m 6,0 m/s (4 Bft) W-SW67.5 240 0 min 0 lux 3,7 C 0,1 C
13.04.2006 17:25 7,9 C 8,1 C 74 % 1009 hPa 0,0 l/m 6,0 m/s (4 Bft) W-SW45 245 0 min 0 lux 3,6 C 0,0 C
13.04.2006 17:30 8,0 C 8,1 C 74 % 1009 hPa 0,0 l/m 6,5 m/s (4 Bft) W-SW67.5 240 0 min 0 lux 3,7 C -0,4 C
13.04.2006 17:35 8,0 C 8,1 C 74 % 1009 hPa 0,0 l/m 5,3 m/s (3 Bft) W-SW45 250 0 min 0 lux 3,7 C 1,0 C
13.04.2006 17:40 7,9 C 8,1 C 76 % 1009 hPa 0,0 l/m 6,4 m/s (4 Bft) W-SW22.5 240 0 min 0 lux 3,9 C -0,4 C
13.04.2006 17:45 7,9 C 8,1 C 76 % 1009 hPa 0,0 l/m 5,4 m/s (3 Bft) SW45 230 0 min 0 lux 3,9 C 0,8 C
13.04.2006 17:50 7,9 C 8,1 C 77 % 1009 hPa 0,0 l/m 5,5 m/s (3 Bft) W-SW45 240 0 min 0 lux 4,1 C 0,7 C
13.04.2006 17:55 7,9 C 8,1 C 77 % 1009 hPa 0,0 l/m 6,3 m/s (4 Bft) W-SW45 245 0 min 0 lux 4,1 C -0,4 C
13.04.2006 18:00 8,0 C 8,1 C 76 % 1008 hPa 0,0 l/m 4,5 m/s (3 Bft) W-SW45 240 0 min 0 lux 4,0 C 2,2 C
13.04.2006 18:05 7,9 C 8,1 C 77 % 1008 hPa 0,0 l/m 6,3 m/s (4 Bft) SW67.5 230 0 min 0 lux 4,1 C -0,3 C
13.04.2006 18:10 7,9 C 8,1 C 77 % 1008 hPa 0,0 l/m 3,7 m/s (3 Bft) W-SW45 245 0 min 0 lux 4,1 C 3,4 C
13.04.2006 18:15 8,0 C 8,1 C 76 % 1008 hPa 0,0 l/m 5,1 m/s (3 Bft) W-SW67.5 240 0 min 0 lux 4,0 C 1,3 C
13.04.2006 18:20 8,0 C 8,1 C 77 % 1008 hPa 0,0 l/m 4,6 m/s (3 Bft) W-SW45 245 0 min 0 lux 4,2 C 2,0 C
13.04.2006 18:25 8,0 C 8,1 C 77 % 1008 hPa 0,0 l/m 6,2 m/s (4 Bft) W-SW45 240 0 min 0 lux 4,2 C -0,1 C
13.04.2006 18:30 8,1 C 8,1 C 77 % 1008 hPa 0,0 l/m 3,3 m/s (2 Bft) SW45 235 0 min 0 lux 4,3 C 4,3 C
13.04.2006 18:35 8,1 C 8,2 C 77 % 1008 hPa 0,0 l/m 5,2 m/s (3 Bft) SW67.5 235 0 min 0 lux 4,3 C 1,3 C
13.04.2006 18:40 8,1 C 8,2 C 76 % 1008 hPa 0,0 l/m 4,9 m/s (3 Bft) SW67.5 235 0 min 0 lux 4,1 C 1,8 C
13.04.2006 18:45 8,1 C 8,2 C 76 % 1008 hPa 0,0 l/m 5,0 m/s (3 Bft) SW22.5 235 0 min 0 lux 4,1 C 1,5 C
13.04.2006 18:50 8,1 C 8,1 C 77 % 1008 hPa 0,0 l/m 4,9 m/s (3 Bft) SW67.5 235 0 min 0 lux 4,3 C 1,7 C
13.04.2006 18:55 8,1 C 8,1 C 77 % 1008 hPa 0,0 l/m 5,3 m/s (3 Bft) W-SW67.5 240 0 min 0 lux 4,3 C 1,2 C
13.04.2006 19:00 8,1 C 8,1 C 77 % 1008 hPa 0,0 l/m 5,5 m/s (3 Bft) SW22.5 225 0 min 0 lux 4,3 C 0,9 C
13.04.2006 19:05 8,1 C 8,2 C 77 % 1008 hPa 0,0 l/m 7,3 m/s (4 Bft) W-SW67.5 240 0 min 0 lux 4,3 C -1,0 C
13.04.2006 19:10 8,2 C 8,2 C 77 % 1008 hPa 0,0 l/m 5,6 m/s (4 Bft) W-SW67.5 240 0 min 0 lux 4,4 C 1,0 C
13.04.2006 19:15 8,2 C 8,2 C 77 % 1008 hPa 0,0 l/m 5,0 m/s (3 Bft) W-SW45 240 0 min 0 lux 4,4 C 1,7 C
13.04.2006 19:20 8,2 C 8,2 C 78 % 1008 hPa 0,0 l/m 7,0 m/s (4 Bft) SW67.5 235 0 min 0 lux 4,6 C -0,6 C
13.04.2006 19:25 8,2 C 8,2 C 78 % 1008 hPa 0,0 l/m 6,1 m/s (4 Bft) W-SW45 245 0 min 0 lux 4,6 C 0,4 C
13.04.2006 19:30 8,3 C 8,2 C 78 % 1008 hPa 0,0 l/m 5,3 m/s (3 Bft) SW67.5 230 0 min 0 lux 4,7 C 1,4 C
13.04.2006 19:35 8,3 C 8,3 C 78 % 1008 hPa 0,0 l/m 7,2 m/s (4 Bft) SW45 235 0 min 0 lux 4,7 C -0,7 C
13.04.2006 19:40 8,3 C 8,3 C 78 % 1008 hPa 0,0 l/m 6,8 m/s (4 Bft) SW45 230 0 min 0 lux 4,7 C -0,4 C
13.04.2006 19:45 8,2 C 8,2 C 79 % 1008 hPa 0,0 l/m 6,5 m/s (4 Bft) SW67.5 235 0 min 0 lux 4,8 C -0,1 C
13.04.2006 19:50 8,2 C 8,2 C 80 % 1008 hPa 0,0 l/m 5,3 m/s (3 Bft) SW67.5 235 0 min 0 lux 5,0 C 1,2 C
13.04.2006 19:55 8,2 C 8,2 C 81 % 1008 hPa 0,0 l/m 6,5 m/s (4 Bft) SW45 230 0 min 0 lux 5,1 C -0,1 C
13.04.2006 20:00 8,2 C 8,2 C 81 % 1008 hPa 0,0 l/m 7,7 m/s (4 Bft) SW45 230 0 min 0 lux 5,1 C -1,3 C
13.04.2006 20:05 8,2 C 8,2 C 82 % 1008 hPa 0,0 l/m 5,5 m/s (3 Bft) SW67.5 235 0 min 0 lux 5,3 C 1,0 C
13.04.2006 20:10 8,2 C 8,1 C 83 % 1008 hPa 0,0 l/m 3,9 m/s (3 Bft) W-SW45 240 0 min 0 lux 5,5 C 3,4 C
13.04.2006 20:15 8,2 C 8,1 C 83 % 1008 hPa 0,0 l/m 6,8 m/s (4 Bft) SW67.5 225 0 min 0 lux 5,5 C -0,4 C
13.04.2006 20:20 8,2 C 8,1 C 83 % 1008 hPa 0,0 l/m 8,6 m/s (5 Bft) SW67.5 230 0 min 0 lux 5,5 C -2,1 C
13.04.2006 20:25 8,2 C 8,1 C 84 % 1008 hPa 0,0 l/m 5,7 m/s (4 Bft) W-SW67.5 240 0 min 0 lux 5,7 C 0,8 C
13.04.2006 20:30 8,2 C 8,1 C 84 % 1007 hPa 0,0 l/m 6,4 m/s (4 Bft) SW67.5 225 0 min 0 lux 5,7 C -0,1 C
13.04.2006 20:35 8,2 C 8,1 C 85 % 1007 hPa 0,0 l/m 6,5 m/s (4 Bft) W-SW45 240 0 min 0 lux 5,8 C -0,2 C
13.04.2006 20:40 8,2 C 8,1 C 86 % 1007 hPa 0,0 l/m 6,4 m/s (4 Bft) W-SW45 250 0 min 0 lux 6,0 C 0,0 C
13.04.2006 20:45 8,2 C 8,0 C 86 % 1008 hPa 0,0 l/m 5,1 m/s (3 Bft) SW67.5 235 0 min 0 lux 6,0 C 1,5 C
13.04.2006 20:50 8,2 C 8,0 C 86 % 1008 hPa 0,0 l/m 5,9 m/s (4 Bft) W-SW45 240 0 min 0 lux 6,0 C 0,6 C
13.04.2006 20:55 8,2 C 8,0 C 87 % 1008 hPa 0,0 l/m 5,8 m/s (4 Bft) W-SW22.5 250 0 min 0 lux 6,2 C 0,7 C
13.04.2006 21:00 8,2 C 8,0 C 87 % 1008 hPa 0,0 l/m 4,7 m/s (3 Bft) W-SW45 240 0 min 0 lux 6,2 C 2,2 C
13.04.2006 21:05 8,3 C 8,0 C 87 % 1008 hPa 0,0 l/m 5,2 m/s (3 Bft) W-SW67.5 245 0 min 0 lux 6,3 C 1,6 C
13.04.2006 21:10 8,3 C 8,0 C 88 % 1008 hPa 0,0 l/m 4,1 m/s (3 Bft) W-SW45 245 0 min 0 lux 6,4 C 3,3 C
13.04.2006 21:15 8,3 C 8,0 C 88 % 1008 hPa 0,0 l/m 5,0 m/s (3 Bft) W-SW45 245 0 min 0 lux 6,4 C 1,9 C
13.04.2006 21:20 8,3 C 8,1 C 88 % 1007 hPa 0,4 l/m 6,5 m/s (4 Bft) W-SW45 255 0 min 0 lux 6,4 C -0,0 C
13.04.2006 21:25 8,3 C 8,1 C 88 % 1007 hPa 0,0 l/m 2,4 m/s (2 Bft) W45 265 0 min 0 lux 6,4 C 6,7 C
13.04.2006 21:30 8,3 C 8,1 C 88 % 1007 hPa 0,0 l/m 2,4 m/s (2 Bft) W45 260 0 min 0 lux 6,4 C 6,6 C
13.04.2006 21:35 8,3 C 8,1 C 88 % 1007 hPa 0,0 l/m 1,9 m/s (2 Bft) W-SW45 250 0 min 0 lux 6,4 C 8,0 C
13.04.2006 21:40 8,3 C 8,1 C 89 % 1007 hPa 0,0 l/m 1,9 m/s (2 Bft) W-SW45 250 0 min 0 lux 6,6 C 7,8 C
13.04.2006 21:45 8,4 C 8,1 C 89 % 1007 hPa 0,0 l/m 2,6 m/s (2 Bft) W-SW22.5 245 0 min 0 lux 6,7 C 6,3 C
13.04.2006 21:50 8,4 C 8,2 C 89 % 1008 hPa 0,0 l/m 4,1 m/s (3 Bft) W-SW45 250 0 min 0 lux 6,7 C 3,3 C
13.04.2006 21:55 8,4 C 8,1 C 89 % 1007 hPa 0,0 l/m 4,7 m/s (3 Bft) W-SW22.5 250 0 min 0 lux 6,7 C 2,4 C
13.04.2006 22:00 8,5 C 8,1 C 90 % 1007 hPa 0,0 l/m 3,5 m/s (3 Bft) W-SW22.5 250 0 min 0 lux 7,0 C 4,5 C
13.04.2006 22:05 8,5 C 8,2 C 90 % 1007 hPa 0,4 l/m 4,1 m/s (3 Bft) W-SW22.5 245 0 min 0 lux 7,0 C 3,4 C
13.04.2006 22:10 8,5 C 8,2 C 90 % 1007 hPa 0,0 l/m 4,0 m/s (3 Bft) W-SW67.5 240 0 min 0 lux 7,0 C 3,5 C
13.04.2006 22:15 8,6 C 8,3 C 90 % 1007 hPa 0,0 l/m 3,9 m/s (3 Bft) W-SW22.5 250 0 min 0 lux 7,1 C 3,9 C
13.04.2006 22:20 8,6 C 8,3 C 90 % 1007 hPa 0,0 l/m 3,5 m/s (3 Bft) W-SW22.5 250 0 min 0 lux 7,1 C 4,6 C
13.04.2006 22:25 8,6 C 8,3 C 90 % 1007 hPa 0,0 l/m 3,4 m/s (3 Bft) W-SW22.5 255 0 min 0 lux 7,1 C 4,7 C
13.04.2006 22:30 8,7 C 8,4 C 91 % 1007 hPa 0,0 l/m 2,6 m/s (2 Bft) W-SW22.5 255 0 min 0 lux 7,3 C 6,5 C
13.04.2006 22:35 8,7 C 8,4 C 90 % 1007 hPa 0,0 l/m 3,1 m/s (2 Bft) W-SW22.5 250 0 min 0 lux 7,2 C 5,5 C
13.04.2006 22:40 8,8 C 8,4 C 91 % 1007 hPa 0,0 l/m 3,6 m/s (3 Bft) W-SW22.5 255 0 min 0 lux 7,4 C 4,6 C
13.04.2006 22:45 8,8 C 8,5 C 90 % 1007 hPa 0,4 l/m 3,9 m/s (3 Bft) W22.5 265 0 min 0 lux 7,3 C 4,2 C
13.04.2006 22:50 8,9 C 8,5 C 90 % 1007 hPa 0,0 l/m 4,9 m/s (3 Bft) W-SW45 250 0 min 0 lux 7,4 C 2,7 C
13.04.2006 22:55 9,0 C 8,6 C 89 % 1007 hPa 0,4 l/m 4,7 m/s (3 Bft) W-SW22.5 245 0 min 0 lux 7,3 C 3,1 C
13.04.2006 23:00 9,0 C 8,7 C 89 % 1007 hPa 0,0 l/m 4,5 m/s (3 Bft) W-SW22.5 255 0 min 0 lux 7,3 C 3,4 C
13.04.2006 23:05 9,1 C 8,7 C 89 % 1007 hPa 0,0 l/m 5,7 m/s (4 Bft) W-SW45 250 0 min 0 lux 7,4 C 1,9 C
13.04.2006 23:10 9,1 C 8,8 C 89 % 1007 hPa 0,4 l/m 6,1 m/s (4 Bft) W-SW45 245 0 min 0 lux 7,4 C 1,4 C
13.04.2006 23:15 9,1 C 8,8 C 89 % 1007 hPa 0,0 l/m 4,1 m/s (3 Bft) W-SW22.5 250 0 min 0 lux 7,4 C 4,2 C
13.04.2006 23:20 9,1 C 8,8 C 89 % 1007 hPa 0,0 l/m 3,9 m/s (3 Bft) W-SW22.5 250 0 min 0 lux 7,4 C 4,5 C
13.04.2006 23:25 9,1 C 8,8 C 89 % 1007 hPa 0,4 l/m 4,1 m/s (3 Bft) W-SW45 245 0 min 0 lux 7,4 C 4,2 C
13.04.2006 23:30 9,1 C 8,8 C 89 % 1007 hPa 0,0 l/m 3,6 m/s (3 Bft) W-SW22.5 255 0 min 0 lux 7,4 C 5,1 C
13.04.2006 23:35 9,1 C 8,9 C 89 % 1007 hPa 0,0 l/m 3,6 m/s (3 Bft) W-SW22.5 250 0 min 0 lux 7,4 C 5,1 C
13.04.2006 23:40 9,1 C 8,9 C 89 % 1007 hPa 0,0 l/m 3,9 m/s (3 Bft) W45 260 0 min 0 lux 7,4 C 4,4 C
13.04.2006 23:45 9,2 C 8,9 C 89 % 1007 hPa 0,0 l/m 4,8 m/s (3 Bft) W-SW22.5 255 0 min 0 lux 7,5 C 3,3 C
13.04.2006 23:50 9,3 C 9,0 C 88 % 1008 hPa 0,0 l/m 4,7 m/s (3 Bft) W-SW22.5 245 0 min 0 lux 7,4 C 3,5 C
13.04.2006 23:55 9,2 C 8,9 C 88 % 1008 hPa 0,4 l/m 3,7 m/s (3 Bft) W-SW45 250 0 min 0 lux 7,3 C 4,9 C
_ Min-Zeit 02:35 03:25 10:05 20:30 - 00:15 - - - - 02:35 08:35
Minimum _ 0,1 C 1,0 C 65 % 1007 hPa - 0,0 m/s (0 Bft) - - - - -0,7 C -5,1 C
_ Max-Zeit 23:50 23:50 03:15 00:00 21:20 13:05 - - 00:00 00:00 23:45 21:35
Maximum _ 9,3 C 9,0 C 95 % 1013 hPa 0,4 l/m 9,3 m/s
W-SW (5 Bft)
- - 0 min 0,000 klux 7,5 C 8,0 C
Durchschnitt _ 5,7 C 5,5 C 82 % 1010 hPa #2,5 l/m 3,6 m/s (3 Bft) W-SW - #0 min. 0,000 klux 2,7 C 1,1 C